Terminal Aerodrome Forecast
Issued by NWS Huntsville, AL

Home | Current Version | Previous Version | Text Only | Print | Product List | Glossary On
Versions: 1 2 3 4 5 6 7 8 9 10 11 12 13 14
000
FTUS44 KHUN 201120
TAFMSL
TAF
KMSL 201120Z 2012/2112 VRB03KT P6SM SCT250
     FM201600 32005KT P6SM SCT050
     FM210000 VRB02KT P6SM SCT050
      TEMPO 2108/2112 4SM BR=

USA.gov is the U.S. government's official web portal to all federal, state and local government web resources and services.